Marshalltown, Iowa
Current Conditions -  °F | °C
As of 1:53 PM on Sunday 21 Dec 2014 (Local Time) from KMIW Reporting Station
Overcast Overcast  
Wind Chill: 31°   Ceiling: 1400
Heat Index: 40°   Visibility: 10mi
Dew Point: 36°   Wind: 17mph
Humidity: 86%   Direction: 180°S
Pressure: 29.84"   Gusts: NA
Location:  42.05°N, 92.91°W
Report Text: KMIW 211953Z AUTO 18015KT 10SM OVC014 04/02 A2984 RMK AO2 SLP111 T00440022
Loading
Personal Weather Stations






























Interactive Weather Map New forecast layout! Learn more

10-Day Weather Forecast

Advertisements
Track Severe Weather on mobile